Terminal Aerodrome Forecast
Issued by NWS

Home | Current Version | Previous Version | Text Only | Print | Product List | Glossary On
Versions: 1 2 3 4 5 6 7 8 9 10 11 12 13 14 15 16 17 18 19 20 21 22 23 24 25 26
000
FTUS44 KCRP 240539
TAFALI
TAF
KALI 240539Z 2406/2506 16012KT P6SM BKN020
     FM240900 16004KT P6SM OVC012
     FM241500 15012KT P6SM VCSH BKN025
     FM241700 15015G20KT P6SM VCTS BKN035CB PROB30 2418/2422 5SM
      TSRA OVC030CB
     FM242200 14018G25KT P6SM VCTS SCT040CB BKN100
     FM250200 14012KT P6SM SCT025 BKN250
      TEMPO 2504/2506 BKN025 OVC250=

USA.gov is the U.S. government's official web portal to all federal, state and local government web resources and services.